sensor_id;sensor_type;location;lat;lon;timestamp;P1;durP1;ratioP1;P2;durP2;ratioP2
59314;SDS011;46521;50.160;20.802;2023-11-21T00:08:20;14.45;;;7.80;;
59314;SDS011;46521;50.160;20.802;2023-11-21T00:18:21;14.30;;;7.90;;
59314;SDS011;46521;50.160;20.802;2023-11-21T00:28:23;16.20;;;8.55;;
59314;SDS011;46521;50.160;20.802;2023-11-21T00:38:26;15.10;;;8.25;;
59314;SDS011;46521;50.160;20.802;2023-11-21T00:48:28;15.27;;;8.40;;
59314;SDS011;46521;50.160;20.802;2023-11-21T00:58:29;13.30;;;7.90;;
59314;SDS011;46521;50.160;20.802;2023-11-21T01:08:31;18.67;;;9.87;;
59314;SDS011;46521;50.160;20.802;2023-11-21T01:18:32;14.85;;;9.00;;
59314;SDS011;46521;50.160;20.802;2023-11-21T01:28:34;13.60;;;8.68;;
59314;SDS011;46521;50.160;20.802;2023-11-21T01:38:35;16.10;;;8.10;;
59314;SDS011;46521;50.160;20.802;2023-11-21T01:48:37;14.45;;;8.05;;
59314;SDS011;46521;50.160;20.802;2023-11-21T01:58:39;15.10;;;8.40;;
59314;SDS011;46521;50.160;20.802;2023-11-21T02:08:42;14.47;;;8.67;;
59314;SDS011;46521;50.160;20.802;2023-11-21T02:18:45;14.05;;;7.90;;
59314;SDS011;46521;50.160;20.802;2023-11-21T02:28:48;13.83;;;7.28;;
59314;SDS011;46521;50.160;20.802;2023-11-21T02:38:49;13.40;;;7.00;;
59314;SDS011;46521;50.160;20.802;2023-11-21T02:48:51;12.80;;;5.97;;
59314;SDS011;46521;50.160;20.802;2023-11-21T02:58:55;11.10;;;6.20;;
59314;SDS011;46521;50.160;20.802;2023-11-21T03:08:57;10.00;;;4.40;;
59314;SDS011;46521;50.160;20.802;2023-11-21T03:18:59;8.97;;;4.60;;
59314;SDS011;46521;50.160;20.802;2023-11-21T03:29:00;9.00;;;4.40;;
59314;SDS011;46521;50.160;20.802;2023-11-21T03:39:01;9.70;;;4.45;;
59314;SDS011;46521;50.160;20.802;2023-11-21T03:49:03;9.80;;;5.05;;
59314;SDS011;46521;50.160;20.802;2023-11-21T03:59:05;10.50;;;5.47;;
59314;SDS011;46521;50.160;20.802;2023-11-21T04:09:06;11.48;;;5.50;;
59314;SDS011;46521;50.160;20.802;2023-11-21T04:19:08;10.45;;;5.95;;
59314;SDS011;46521;50.160;20.802;2023-11-21T04:29:15;11.43;;;6.23;;
59314;SDS011;46521;50.160;20.802;2023-11-21T04:39:17;12.17;;;6.70;;
59314;SDS011;46521;50.160;20.802;2023-11-21T04:49:18;12.60;;;5.70;;
59314;SDS011;46521;50.160;20.802;2023-11-21T04:59:20;12.90;;;5.95;;
59314;SDS011;46521;50.160;20.802;2023-11-21T05:09:21;12.48;;;6.03;;
59314;SDS011;46521;50.160;20.802;2023-11-21T05:19:23;11.40;;;6.45;;
59314;SDS011;46521;50.160;20.802;2023-11-21T05:29:24;12.30;;;6.50;;
59314;SDS011;46521;50.160;20.802;2023-11-21T05:39:26;12.50;;;6.30;;
59314;SDS011;46521;50.160;20.802;2023-11-21T05:49:28;12.60;;;7.03;;
59314;SDS011;46521;50.160;20.802;2023-11-21T05:59:30;11.85;;;6.95;;
59314;SDS011;46521;50.160;20.802;2023-11-21T06:09:32;13.50;;;7.47;;
59314;SDS011;46521;50.160;20.802;2023-11-21T06:19:33;13.10;;;7.35;;
59314;SDS011;46521;50.160;20.802;2023-11-21T06:29:35;12.97;;;6.73;;
59314;SDS011;46521;50.160;20.802;2023-11-21T06:39:37;12.83;;;5.90;;
59314;SDS011;46521;50.160;20.802;2023-11-21T06:49:39;11.27;;;6.40;;
59314;SDS011;46521;50.160;20.802;2023-11-21T06:59:42;12.38;;;6.48;;
59314;SDS011;46521;50.160;20.802;2023-11-21T07:09:43;14.73;;;5.97;;
59314;SDS011;46521;50.160;20.802;2023-11-21T07:19:45;11.25;;;5.60;;
59314;SDS011;46521;50.160;20.802;2023-11-21T07:29:47;11.65;;;5.98;;
59314;SDS011;46521;50.160;20.802;2023-11-21T07:39:49;11.07;;;6.40;;
59314;SDS011;46521;50.160;20.802;2023-11-21T07:49:50;16.60;;;7.40;;
59314;SDS011;46521;50.160;20.802;2023-11-21T07:59:52;11.40;;;5.78;;
59314;SDS011;46521;50.160;20.802;2023-11-21T08:09:55;14.47;;;6.70;;
59314;SDS011;46521;50.160;20.802;2023-11-21T08:19:57;9.53;;;4.87;;
59314;SDS011;46521;50.160;20.802;2023-11-21T08:29:59;7.68;;;3.53;;
59314;SDS011;46521;50.160;20.802;2023-11-21T08:40:00;18.10;;;13.05;;
59314;SDS011;46521;50.160;20.802;2023-11-21T08:50:03;13.50;;;7.03;;
59314;SDS011;46521;50.160;20.802;2023-11-21T09:00:06;9.90;;;6.57;;
59314;SDS011;46521;50.160;20.802;2023-11-21T09:10:12;9.55;;;6.70;;
59314;SDS011;46521;50.160;20.802;2023-11-21T09:20:14;10.63;;;6.20;;
59314;SDS011;46521;50.160;20.802;2023-11-21T09:30:16;9.47;;;5.63;;
59314;SDS011;46521;50.160;20.802;2023-11-21T09:40:18;27.30;;;14.00;;
59314;SDS011;46521;50.160;20.802;2023-11-21T09:50:23;16.33;;;11.33;;
59314;SDS011;46521;50.160;20.802;2023-11-21T10:00:27;21.55;;;13.45;;
59314;SDS011;46521;50.160;20.802;2023-11-21T10:10:28;17.33;;;9.77;;
59314;SDS011;46521;50.160;20.802;2023-11-21T10:20:33;11.93;;;6.95;;
59314;SDS011;46521;50.160;20.802;2023-11-21T10:30:35;11.45;;;6.55;;
59314;SDS011;46521;50.160;20.802;2023-11-21T10:40:41;12.60;;;7.40;;
59314;SDS011;46521;50.160;20.802;2023-11-21T10:50:46;13.65;;;8.43;;
59314;SDS011;46521;50.160;20.802;2023-11-21T11:00:48;12.60;;;8.80;;
59314;SDS011;46521;50.160;20.802;2023-11-21T11:10:51;12.27;;;6.97;;
59314;SDS011;46521;50.160;20.802;2023-11-21T11:20:53;15.87;;;7.47;;
59314;SDS011;46521;50.160;20.802;2023-11-21T11:31:00;15.27;;;9.57;;
59314;SDS011;46521;50.160;20.802;2023-11-21T11:41:12;11.60;;;7.47;;
59314;SDS011;46521;50.160;20.802;2023-11-21T11:51:14;12.47;;;8.10;;
59314;SDS011;46521;50.160;20.802;2023-11-21T12:01:21;13.27;;;8.27;;
59314;SDS011;46521;50.160;20.802;2023-11-21T12:11:30;12.80;;;7.30;;
59314;SDS011;46521;50.160;20.802;2023-11-21T12:21:36;11.73;;;7.10;;
59314;SDS011;46521;50.160;20.802;2023-11-21T12:31:38;16.75;;;11.68;;
59314;SDS011;46521;50.160;20.802;2023-11-21T12:41:40;18.37;;;10.30;;
59314;SDS011;46521;50.160;20.802;2023-11-21T12:51:43;17.85;;;14.50;;
59314;SDS011;46521;50.160;20.802;2023-11-21T13:01:46;17.20;;;13.10;;
59314;SDS011;46521;50.160;20.802;2023-11-21T13:11:48;22.00;;;14.00;;
59314;SDS011;46521;50.160;20.802;2023-11-21T13:21:50;24.73;;;16.40;;
59314;SDS011;46521;50.160;20.802;2023-11-21T13:31:51;15.30;;;10.20;;
59314;SDS011;46521;50.160;20.802;2023-11-21T13:41:54;19.85;;;13.05;;
59314;SDS011;46521;50.160;20.802;2023-11-21T13:51:57;18.63;;;12.70;;
59314;SDS011;46521;50.160;20.802;2023-11-21T14:02:00;20.57;;;13.33;;
59314;SDS011;46521;50.160;20.802;2023-11-21T14:12:17;40.77;;;22.53;;
59314;SDS011;46521;50.160;20.802;2023-11-21T14:22:19;22.87;;;13.70;;
59314;SDS011;46521;50.160;20.802;2023-11-21T14:32:22;24.37;;;13.90;;
59314;SDS011;46521;50.160;20.802;2023-11-21T14:42:23;29.90;;;21.13;;
59314;SDS011;46521;50.160;20.802;2023-11-21T14:52:27;24.10;;;17.30;;
59314;SDS011;46521;50.160;20.802;2023-11-21T15:02:35;18.63;;;12.65;;
59314;SDS011;46521;50.160;20.802;2023-11-21T15:12:52;20.07;;;13.00;;
59314;SDS011;46521;50.160;20.802;2023-11-21T15:22:53;19.30;;;12.78;;
59314;SDS011;46521;50.160;20.802;2023-11-21T15:32:55;24.80;;;16.63;;
59314;SDS011;46521;50.160;20.802;2023-11-21T15:42:57;26.00;;;16.45;;
59314;SDS011;46521;50.160;20.802;2023-11-21T15:52:58;27.95;;;17.00;;
59314;SDS011;46521;50.160;20.802;2023-11-21T16:03:00;24.40;;;15.30;;
59314;SDS011;46521;50.160;20.802;2023-11-21T16:13:02;24.10;;;12.50;;
59314;SDS011;46521;50.160;20.802;2023-11-21T16:23:04;22.47;;;13.77;;
59314;SDS011;46521;50.160;20.802;2023-11-21T16:33:06;18.80;;;11.40;;
59314;SDS011;46521;50.160;20.802;2023-11-21T16:43:09;19.15;;;10.55;;
59314;SDS011;46521;50.160;20.802;2023-11-21T16:53:11;20.75;;;10.90;;
59314;SDS011;46521;50.160;20.802;2023-11-21T17:03:12;18.45;;;10.90;;
59314;SDS011;46521;50.160;20.802;2023-11-21T17:13:14;26.55;;;14.05;;
59314;SDS011;46521;50.160;20.802;2023-11-21T17:23:16;23.78;;;13.63;;
59314;SDS011;46521;50.160;20.802;2023-11-21T17:33:19;22.65;;;11.60;;
59314;SDS011;46521;50.160;20.802;2023-11-21T17:43:21;21.80;;;12.70;;
59314;SDS011;46521;50.160;20.802;2023-11-21T17:53:22;18.78;;;11.35;;
59314;SDS011;46521;50.160;20.802;2023-11-21T18:03:24;29.05;;;14.80;;
59314;SDS011;46521;50.160;20.802;2023-11-21T18:13:26;24.20;;;14.10;;
59314;SDS011;46521;50.160;20.802;2023-11-21T18:23:27;22.90;;;12.30;;
59314;SDS011;46521;50.160;20.802;2023-11-21T18:33:29;24.60;;;13.20;;
59314;SDS011;46521;50.160;20.802;2023-11-21T18:43:30;19.00;;;11.55;;
59314;SDS011;46521;50.160;20.802;2023-11-21T18:53:32;18.20;;;10.30;;
59314;SDS011;46521;50.160;20.802;2023-11-21T19:03:35;20.00;;;11.00;;
59314;SDS011;46521;50.160;20.802;2023-11-21T19:13:37;21.55;;;12.40;;
59314;SDS011;46521;50.160;20.802;2023-11-21T19:23:38;19.30;;;11.00;;
59314;SDS011;46521;50.160;20.802;2023-11-21T19:33:40;20.10;;;10.65;;
59314;SDS011;46521;50.160;20.802;2023-11-21T19:43:45;21.90;;;11.20;;
59314;SDS011;46521;50.160;20.802;2023-11-21T19:53:50;28.70;;;13.65;;
59314;SDS011;46521;50.160;20.802;2023-11-21T20:03:52;15.95;;;7.20;;
59314;SDS011;46521;50.160;20.802;2023-11-21T20:13:53;13.25;;;7.05;;
59314;SDS011;46521;50.160;20.802;2023-11-21T20:23:56;10.75;;;5.65;;
59314;SDS011;46521;50.160;20.802;2023-11-21T20:33:58;9.55;;;5.35;;
59314;SDS011;46521;50.160;20.802;2023-11-21T20:43:59;9.43;;;5.93;;
59314;SDS011;46521;50.160;20.802;2023-11-21T20:54:02;10.10;;;5.55;;
59314;SDS011;46521;50.160;20.802;2023-11-21T21:04:05;9.50;;;6.10;;
59314;SDS011;46521;50.160;20.802;2023-11-21T21:14:11;11.50;;;6.90;;
59314;SDS011;46521;50.160;20.802;2023-11-21T21:24:12;9.65;;;5.80;;
59314;SDS011;46521;50.160;20.802;2023-11-21T21:34:14;12.95;;;7.10;;
59314;SDS011;46521;50.160;20.802;2023-11-21T21:44:17;14.20;;;8.70;;
59314;SDS011;46521;50.160;20.802;2023-11-21T21:54:19;18.43;;;11.83;;
59314;SDS011;46521;50.160;20.802;2023-11-21T22:04:21;20.30;;;11.70;;
59314;SDS011;46521;50.160;20.802;2023-11-21T22:14:22;21.20;;;13.33;;
59314;SDS011;46521;50.160;20.802;2023-11-21T22:24:23;20.40;;;12.10;;
59314;SDS011;46521;50.160;20.802;2023-11-21T22:34:25;19.00;;;12.90;;
59314;SDS011;46521;50.160;20.802;2023-11-21T22:44:26;24.40;;;15.35;;
59314;SDS011;46521;50.160;20.802;2023-11-21T22:54:28;25.85;;;15.40;;
59314;SDS011;46521;50.160;20.802;2023-11-21T23:04:30;23.60;;;14.85;;
59314;SDS011;46521;50.160;20.802;2023-11-21T23:14:32;21.90;;;13.20;;
59314;SDS011;46521;50.160;20.802;2023-11-21T23:24:33;21.15;;;13.50;;
59314;SDS011;46521;50.160;20.802;2023-11-21T23:34:35;23.25;;;15.05;;
59314;SDS011;46521;50.160;20.802;2023-11-21T23:44:36;27.40;;;16.60;;
59314;SDS011;46521;50.160;20.802;2023-11-21T23:54:38;27.15;;;16.40;;
